createdAt,value
2018-07-04T00:04:00.245Z,6.20
2018-07-04T00:09:14.853Z,12.27
2018-07-04T00:14:29.400Z,6.37
2018-07-04T00:19:43.882Z,4.60
2018-07-04T00:25:02.822Z,5.93
2018-07-04T00:30:11.353Z,8.53
2018-07-04T00:35:25.901Z,4.60
2018-07-04T00:40:40.566Z,6.53
2018-07-04T00:45:55.073Z,4.13
2018-07-04T00:51:09.764Z,4.47
2018-07-04T00:56:18.427Z,7.13
2018-07-04T01:01:32.948Z,6.93
2018-07-04T01:06:47.559Z,4.63
2018-07-04T01:12:02.118Z,9.50
2018-07-04T01:17:16.583Z,10.53
2018-07-04T01:22:31.038Z,7.33
2018-07-04T01:27:45.617Z,5.83
2018-07-04T01:33:00.374Z,11.93
2018-07-04T01:38:14.918Z,10.47
2018-07-04T01:43:29.321Z,8.20
2018-07-04T01:48:43.817Z,5.23
2018-07-04T01:53:58.477Z,7.67
2018-07-04T01:59:12.950Z,5.17
2018-07-04T02:04:27.646Z,9.47
2018-07-04T02:09:42.245Z,5.53
2018-07-04T02:14:56.929Z,7.50
2018-07-04T02:20:11.678Z,6.97
2018-07-04T02:25:26.168Z,6.43
2018-07-04T02:30:40.803Z,8.37
2018-07-04T02:35:55.512Z,10.87
2018-07-04T02:41:10.049Z,7.97
2018-07-04T02:46:30.070Z,7.77
2018-07-04T02:51:44.590Z,8.33
2018-07-04T02:56:59.122Z,9.03
2018-07-04T03:02:13.815Z,9.00
2018-07-04T03:07:30.360Z,8.27
2018-07-04T03:12:44.811Z,6.90
2018-07-04T03:17:59.398Z,10.93
2018-07-04T03:23:13.922Z,5.57
2018-07-04T03:28:22.402Z,10.37
2018-07-04T03:33:37.064Z,9.30
2018-07-04T03:38:51.689Z,10.27
2018-07-04T03:44:08.034Z,9.00
2018-07-04T03:49:22.504Z,8.50
2018-07-04T03:54:37.114Z,9.67
2018-07-04T03:59:51.922Z,12.53
2018-07-04T04:05:06.400Z,8.77
2018-07-04T04:10:20.995Z,7.30
2018-07-04T04:15:35.623Z,6.90
2018-07-04T04:20:50.199Z,8.00
2018-07-04T04:26:04.769Z,6.90
2018-07-04T04:31:19.158Z,9.67
2018-07-04T04:36:33.807Z,13.80
2018-07-04T04:41:48.508Z,6.73
2018-07-04T04:47:02.905Z,9.67
2018-07-04T04:52:17.786Z,8.37
2018-07-04T04:57:32.578Z,7.60
2018-07-04T05:02:47.328Z,9.17
2018-07-04T05:08:02.014Z,8.97
2018-07-04T05:13:16.589Z,8.17
2018-07-04T05:18:31.293Z,11.63
2018-07-04T05:23:45.958Z,13.23
2018-07-04T05:29:00.527Z,20.87
2018-07-04T05:34:14.973Z,11.40
2018-07-04T05:39:29.613Z,23.83
2018-07-04T05:44:45.091Z,15.97
2018-07-04T05:49:59.769Z,15.97
2018-07-04T05:55:14.498Z,19.20
2018-07-04T06:00:29.196Z,16.73
2018-07-04T06:05:44.689Z,13.77
2018-07-04T06:11:00.326Z,19.77
2018-07-04T06:16:14.953Z,11.50
2018-07-04T06:21:29.441Z,23.73
2018-07-04T06:26:43.996Z,16.27
2018-07-04T06:31:58.550Z,16.90
2018-07-04T06:37:13.319Z,22.10
2018-07-04T06:42:15.595Z,13.13
2018-07-04T06:47:17.810Z,22.10
2018-07-04T06:52:20.463Z,27.77
2018-07-04T06:57:22.647Z,26.20
2018-07-04T07:02:25.726Z,18.50
2018-07-04T07:07:40.216Z,15.70
2018-07-04T07:12:54.961Z,20.33
2018-07-04T07:18:10.121Z,19.10
2018-07-04T07:23:25.704Z,15.70
2018-07-04T07:28:40.437Z,21.07
2018-07-04T07:33:54.994Z,16.00
2018-07-04T07:39:09.592Z,17.30
2018-07-04T07:44:24.162Z,18.17
2018-07-04T07:49:38.793Z,15.87
2018-07-04T07:54:53.603Z,19.00
2018-07-04T08:00:08.202Z,17.63
2018-07-04T08:05:22.789Z,17.90
2018-07-04T08:10:37.315Z,20.43
2018-07-04T08:15:51.680Z,21.73
2018-07-04T08:21:06.257Z,9.63
2018-07-04T08:26:21.721Z,19.50
2018-07-04T08:31:36.183Z,19.47
2018-07-04T08:36:50.874Z,13.87
2018-07-04T08:42:05.618Z,12.73
2018-07-04T08:47:20.249Z,15.37
2018-07-04T08:52:36.802Z,16.40
2018-07-04T08:57:51.305Z,11.13
2018-07-04T09:03:05.953Z,11.53
2018-07-04T09:08:21.902Z,11.47
2018-07-04T09:13:36.592Z,12.60
2018-07-04T09:18:51.247Z,10.33
2018-07-04T09:24:05.957Z,10.73
2018-07-04T09:29:20.554Z,8.97
2018-07-04T09:34:35.040Z,9.73
2018-07-04T09:39:49.683Z,13.77
2018-07-04T09:45:04.311Z,12.90
2018-07-04T09:50:19.058Z,8.30
2018-07-04T09:55:33.622Z,7.13
2018-07-04T10:00:54.558Z,11.23
2018-07-04T10:06:09.199Z,8.50
2018-07-04T10:11:23.907Z,11.57
2018-07-04T10:16:38.578Z,7.53
2018-07-04T10:21:55.064Z,12.27
2018-07-04T10:27:11.113Z,7.80
2018-07-04T10:32:25.853Z,9.60
2018-07-04T10:37:40.502Z,6.20
2018-07-04T10:42:55.173Z,7.90
2018-07-04T10:48:10.115Z,6.30
2018-07-04T10:53:25.734Z,5.07
2018-07-04T10:58:40.494Z,11.43
2018-07-04T11:03:49.145Z,13.07
2018-07-04T11:09:04.095Z,8.50
2018-07-04T11:14:18.565Z,7.03
2018-07-04T11:19:43.975Z,3.37
2018-07-04T11:24:59.974Z,4.13
2018-07-04T11:30:14.578Z,3.90
2018-07-04T11:35:29.054Z,6.43
2018-07-04T11:40:43.692Z,6.73
2018-07-04T11:45:59.103Z,3.83
2018-07-04T11:51:02.579Z,7.53
2018-07-04T11:56:04.955Z,5.53
2018-07-04T12:01:07.105Z,4.13
2018-07-04T12:06:21.789Z,3.13
2018-07-04T12:11:23.964Z,10.20
2018-07-04T12:16:27.141Z,2.73
2018-07-04T12:21:29.310Z,6.87
2018-07-04T12:26:31.494Z,6.73
2018-07-04T12:31:33.654Z,2.67
2018-07-04T12:36:35.818Z,2.27
2018-07-04T12:41:37.984Z,5.07
2018-07-04T12:46:40.151Z,2.90
2018-07-04T12:51:42.298Z,4.73
2018-07-04T12:56:56.907Z,4.37
2018-07-04T13:02:11.341Z,8.27
2018-07-04T13:07:26.221Z,5.57
2018-07-04T13:12:40.919Z,4.03
2018-07-04T13:17:55.437Z,12.27
2018-07-04T13:23:15.226Z,2.27
2018-07-04T13:28:29.866Z,5.50
2018-07-04T13:33:44.574Z,9.07
2018-07-04T13:38:59.282Z,4.90
2018-07-04T13:44:14.079Z,2.53
2018-07-04T13:49:28.590Z,3.33
2018-07-04T13:54:43.089Z,5.90
2018-07-04T13:59:58.343Z,5.73
2018-07-04T14:05:12.846Z,7.50
2018-07-04T14:10:27.294Z,7.33
2018-07-04T14:15:41.747Z,5.17
2018-07-04T14:20:58.526Z,3.97
2018-07-04T14:26:13.306Z,3.30
2018-07-04T14:31:27.805Z,9.23
2018-07-04T14:36:42.498Z,7.40
2018-07-04T14:41:56.969Z,4.17
2018-07-04T14:47:11.689Z,2.73
2018-07-04T14:52:26.501Z,3.70
2018-07-04T14:57:41.073Z,4.63
2018-07-04T15:02:55.686Z,2.30
2018-07-04T15:08:10.021Z,5.87
2018-07-04T15:13:28.761Z,7.87
2018-07-04T15:18:43.253Z,4.63
2018-07-04T15:23:58.797Z,4.40
2018-07-04T15:29:13.376Z,4.43
2018-07-04T15:34:28.084Z,6.50
2018-07-04T15:39:42.698Z,11.03
2018-07-04T15:44:57.137Z,9.67
2018-07-04T15:50:11.785Z,8.43
2018-07-04T15:55:26.294Z,6.60
2018-07-04T16:00:44.393Z,7.37
2018-07-04T16:05:59.005Z,11.20
2018-07-04T16:11:13.674Z,9.90
2018-07-04T16:16:28.357Z,14.50
2018-07-04T16:21:42.781Z,12.53
2018-07-04T16:26:57.282Z,8.97
2018-07-04T16:32:11.921Z,13.17
2018-07-04T16:37:26.529Z,13.93
2018-07-04T16:42:41.074Z,7.87
2018-07-04T16:47:55.641Z,9.93
2018-07-04T16:53:10.215Z,10.53
2018-07-04T16:58:24.854Z,12.37
2018-07-04T17:03:39.220Z,11.80
2018-07-04T17:08:53.802Z,7.70
2018-07-04T17:14:08.429Z,9.60
2018-07-04T17:19:23.086Z,7.57
2018-07-04T17:24:37.730Z,16.20
2018-07-04T17:29:52.331Z,11.17
2018-07-04T17:35:06.719Z,10.73
2018-07-04T17:40:21.330Z,8.00
2018-07-04T17:45:35.951Z,7.50
2018-07-04T17:50:50.313Z,9.23
2018-07-04T17:56:04.774Z,11.43
2018-07-04T18:01:19.506Z,10.57
2018-07-04T18:06:35.048Z,14.10
2018-07-04T18:11:49.541Z,9.20
2018-07-04T18:17:04.050Z,8.53
2018-07-04T18:22:18.714Z,10.70
2018-07-04T18:27:33.352Z,9.00
2018-07-04T18:32:47.922Z,11.67
2018-07-04T18:38:04.435Z,7.00
2018-07-04T18:43:29.256Z,10.63
2018-07-04T18:48:43.742Z,9.07
2018-07-04T18:53:58.134Z,11.77
2018-07-04T18:59:12.672Z,9.40
2018-07-04T19:04:27.450Z,9.83
2018-07-04T19:09:42.024Z,11.17
2018-07-04T19:14:56.543Z,9.03
2018-07-04T19:20:11.088Z,8.80
2018-07-04T19:25:26.645Z,9.90
2018-07-04T19:30:41.333Z,6.70
2018-07-04T19:35:55.977Z,8.40
2018-07-04T19:41:10.530Z,8.00
2018-07-04T19:46:25.130Z,12.40
2018-07-04T19:51:39.668Z,9.37
2018-07-04T19:56:55.186Z,8.87
2018-07-04T20:02:11.059Z,11.40
2018-07-04T20:07:26.643Z,10.53
2018-07-04T20:12:41.464Z,8.17
2018-07-04T20:17:56.117Z,9.83
2018-07-04T20:23:10.683Z,9.83
2018-07-04T20:28:25.237Z,10.27
2018-07-04T20:33:39.897Z,9.93
2018-07-04T20:38:54.420Z,9.10
2018-07-04T20:44:08.914Z,9.93
2018-07-04T20:49:23.426Z,7.80
2018-07-04T20:54:38.009Z,7.77
2018-07-04T20:59:52.373Z,9.87
2018-07-04T21:05:07.013Z,12.90
2018-07-04T21:10:21.726Z,11.73
2018-07-04T21:15:36.170Z,11.23
2018-07-04T21:20:50.822Z,10.57
2018-07-04T21:26:05.391Z,10.77
2018-07-04T21:31:20.046Z,8.67
2018-07-04T21:36:34.693Z,9.73
2018-07-04T21:41:49.238Z,9.77
2018-07-04T21:47:03.857Z,14.23
2018-07-04T21:52:18.418Z,11.03
2018-07-04T21:57:32.994Z,8.30
2018-07-04T22:02:47.702Z,8.90
2018-07-04T22:08:02.353Z,9.23
2018-07-04T22:13:17.231Z,9.30
2018-07-04T22:18:31.737Z,11.30
2018-07-04T22:23:46.284Z,8.10
2018-07-04T22:29:00.924Z,10.57
2018-07-04T22:34:15.461Z,9.23
2018-07-04T22:39:29.965Z,8.13
2018-07-04T22:44:44.565Z,10.33
2018-07-04T22:49:59.242Z,12.00
2018-07-04T22:55:13.958Z,9.13
2018-07-04T23:00:30.059Z,10.23
2018-07-04T23:05:44.805Z,9.67
2018-07-04T23:10:59.452Z,10.27
2018-07-04T23:16:14.110Z,12.13
2018-07-04T23:21:30.121Z,9.47
2018-07-04T23:26:44.690Z,10.53
2018-07-04T23:31:53.233Z,10.63
2018-07-04T23:37:07.860Z,9.77
2018-07-04T23:42:22.378Z,10.60
2018-07-04T23:47:36.972Z,10.60
2018-07-04T23:52:51.433Z,11.27
2018-07-04T23:58:06.201Z,9.83
